Погода Шеломына неделю

Витебская область, Белоруссия

24 - 30 мая
  • 24мая
    Сегодня
    +10°
    +22°
    Ясно и безоблачно
    ВремяПогодаТемператураВлажностьДавлениеВетер, м/сВероятность осадков
    00:00Ясно и безоблачно+15°C55 %754 мм2.8 м/с2 %
    03:00Ясно и безоблачно+13°C57 %755 мм2.9 м/с2 %
    06:00Ясно и безоблачно+12°C57 %756 мм2.5 м/с2 %
    09:00Ясно и безоблачно+15°C52 %756 мм3.3 м/с2 %
    12:00Ясно и безоблачно+20°C46 %757 мм3.4 м/с2 %
    15:00Ясно и безоблачно+21°C41 %756 мм3.6 м/с2 %
    18:00Ясно и безоблачно+21°C43 %756 мм3.2 м/с2 %
    21:00Ясно и безоблачно+17°C55 %756 мм2.3 м/с2 %
  • 25мая
    Суббота
    +9°
    +23°
    Ясно и безоблачно
    ВремяПогодаТемператураВлажностьДавлениеВетер, м/сВероятность осадков
    00:00Ясно и безоблачно+13°C60 %756 мм2.0 м/с2 %
    03:00Ясно и безоблачно+11°C64 %756 мм2.1 м/с2 %
    06:00Ясно и безоблачно+11°C61 %756 мм1.8 м/с2 %
    09:00Ясно и безоблачно+16°C52 %756 мм2.3 м/с2 %
    12:00Ясно и безоблачно+22°C40 %756 мм2.9 м/с2 %
    15:00Ясно и безоблачно+23°C34 %755 мм3.1 м/с2 %
    18:00Ясно и безоблачно+22°C35 %754 мм2.5 м/с2 %
    21:00Ясно и безоблачно+18°C68 %754 мм1.5 м/с2 %
  • 26мая
    Воскресенье
    +13°
    +24°
    Практически безоблачно
    ВремяПогодаТемператураВлажностьДавлениеВетер, м/сВероятность осадков
    00:00Практически безоблачно+13°C77 %754 мм1.0 м/с2 %
    03:00Облачно с прояснениями+12°C84 %754 мм1.2 м/с2 %
    06:00Облачно с прояснениями+11°C82 %754 мм0.8 м/с2 %
    09:00Облачно с прояснениями+18°C63 %754 мм1.0 м/с2 %
    12:00Практически безоблачно+23°C38 %754 мм1.4 м/с2 %
    15:00Практически безоблачно+23°C37 %754 мм2.1 м/с2 %
    18:00Ясно и безоблачно+24°C36 %753 мм2.2 м/с2 %
    21:00Ясно и безоблачно+19°C62 %753 мм1.1 м/с2 %
  • 27мая
    Понедельник
    +14°
    +27°
    Небольшая облачность
    ВремяПогодаТемператураВлажностьДавлениеВетер, м/сВероятность осадков
    00:00Небольшая облачность+15°C71 %753 мм0.6 м/с2 %
    03:00Ясно и безоблачно+14°C78 %753 мм1.1 м/с2 %
    06:00Ясно и безоблачно+14°C79 %754 мм1.1 м/с2 %
    09:00Ясно и безоблачно+20°C66 %754 мм1.4 м/с2 %
    12:00Ясно и безоблачно+26°C49 %754 мм1.8 м/с6 %
    15:00Небольшая облачность+26°C44 %754 мм2.4 м/с34 %
    18:00Практически безоблачно+26°C56 %754 мм1.3 м/с36 %
    21:00Практически безоблачно+22°C66 %754 мм1.6 м/с4 %
Мы используем cookies
Соглашаюсь